southbay-los-angeles-map, wherela.com

Weather Conditions for:
Torrance, Zamperini Field Airport, CA (KTOA)

Elev: 102 ft; Latitude: 33.80; Longitude: -118.33333

Time  Temp Relative Wind  Wind Speed (mph)
(PDT) (F) Humidity (%) Direction
02 May 7:50 pm PDT 82 20 W 17
02 May 6:47 pm PDT 84 13 W 12
02 May 5:50 pm PDT 82 19 NW 9
02 May 4:50 pm PDT 82 22 WNW 18
02 May 3:47 pm PDT 82 35 WNW 16
02 May 2:50 pm PDT 81 48 W 17
02 May 1:50 pm PDT 93 18 W 17
02 May 12:50 pm PDT 95 8 WNW 8
02 May 11:55 am PDT 95 8 ENE 8
02 May 10:50 am PDT 90 12 E 8
02 May 9:47 am PDT 84 16 E 12
02 May 8:48 am PDT 81 18 E 14
02 May 6:47 am PDT 66 35 CALM
01 May 7:47 pm PDT 77 19 WSW 17
01 May 5:50 pm PDT 86 10 W 14
01 May 4:47 pm PDT 88 12 WNW 15
01 May 3:47 pm PDT 91 8 W 17
01 May 2:55 pm PDT 91 8 W 12
01 May 2:47 pm PDT 91 12 W 17
01 May 12:58 pm PDT 93 12 W 12
01 May 11:50 am PDT 91 9 W 12
01 May 9:47 am PDT 86 11 VRBL 7
01 May 8:47 am PDT 86 9 S 9
01 May 7:47 am PDT 79 17 VRBL 6
01 May 6:47 am PDT 68 23 VRBL 6

http://www.wrh.noaa.gov/mesowest/getobext.php?wfo=lox&sid=KTOA&num=168&raw=0&dbn=m

Weather Conditions for:
Long Beach, Long Beach Airport, CA (KLGB)

Elev: 56 ft; Latitude: 33.81167; Longitude: -118.14639

Time  Temp Relative Wind Direction Wind Speed (mph)
Humidity
(PDT) (F) (%)
02 May 11:53 pm PDT 65 70 SSE 6
02 May 10:53 pm PDT 67 52 S 7
02 May 9:53 pm PDT 76 25 WSW 3
02 May 8:53 pm PDT 78 20 W 8
02 May 7:53 pm PDT 77 22 NW 8
02 May 6:53 pm PDT 82 15 WNW 12
02 May 5:53 pm PDT 86 11 WNW 13
02 May 4:53 pm PDT 89 11 WNW 8
02 May 3:53 pm PDT 90 8 S 8
02 May 2:53 pm PDT 90 9 SSW 8
02 May 1:53 pm PDT 87 11 S 9
02 May 12:53 pm PDT 87 15 S 8
02 May 11:53 am PDT 85 15 SSW 7
02 May 10:53 am PDT 83 15 S 8
02 May 9:53 am PDT 81 16 CALM
02 May 8:53 am PDT 77 21 CALM
02 May 7:53 am PDT 70 29 CALM
02 May 6:53 am PDT 64 45 ESE 3
02 May 5:53 am PDT 62 52 CALM
02 May 4:53 am PDT 63 54 NNW 3
02 May 3:53 am PDT 63 52 CALM
02 May 2:53 am PDT 64 52 CALM
02 May 1:53 am PDT 66 47 CALM
02 May 12:53 am PDT 66 45 SE 3
01 May 11:53 pm PDT 67 44 CALM
01 May 10:53 pm PDT 69 41 CALM
01 May 9:53 pm PDT 70 36 NW 5
01 May 8:53 pm PDT 72 30 WNW 7
01 May 7:53 pm PDT 78 16 WNW 14
01 May 6:53 pm PDT 83 7 W 10G21
01 May 5:53 pm PDT 85 7 WNW 16G25
01 May 4:53 pm PDT 89 6 WNW 16
01 May 3:53 pm PDT 90 7 WNW 16
01 May 2:53 pm PDT 91 6 W 14
01 May 2:23 pm PDT 93 5 WNW 13
01 May 1:53 pm PDT 94 5 W 9
01 May 12:53 pm PDT 92 6 VRBL 5
01 May 11:53 am PDT 90 5 CALM
01 May 10:53 am PDT 90 5 E 7G18
01 May 9:53 am PDT 86 8 CALM
01 May 8:53 am PDT 82 9 CALM
01 May 7:53 am PDT 73 21 CALM
01 May 6:53 am PDT 66 27 NNW 5
01 May 6:40 am PDT 64 30 NW 5
01 May 5:53 am PDT 69 18 E 7
01 May 4:53 am PDT 65 28 CALM
01 May 3:53 am PDT 66 32 CALM
01 May 2:53 am PDT 68 28 NW 3
01 May 1:53 am PDT 69 27 W 3
01 May 12:53 am PDT 70 26 CALM

http://www.wrh.noaa.gov/mesowest/getobext.php?wfo=lox&sid=KLGB&num=168&raw=0&dbn=m